Time;durP1;ratioP1;P1;durP2;ratioP2;P2;SDS_P1;SDS_P2;PMS_P1;PMS_P2;Temp;Humidity;BMP_temperature;BMP_pressure;BME280_temperature;BME280_humidity;BME280_pressure;Samples;Min_cycle;Max_cycle;Signal;HPM_P1;HPM_P2
2022/06/04 00:00:38;;;;;;;8.93;4.85;;;11.50;99.90;;;;;;5074325;28;20512;-70
2022/06/04 00:03:04;;;;;;;9.35;4.30;;;11.40;99.90;;;;;;5096703;28;20077;-70
2022/06/04 00:05:33;;;;;;;10.18;5.82;;;11.50;99.90;;;;;;5074853;28;20065;-70
2022/06/04 00:08:01;;;;;;;10.15;6.03;;;11.60;99.90;;;;;;5092437;28;20480;-70
2022/06/04 00:16:07;;;;;;;8.73;4.57;;;11.40;99.90;;;;;;5076190;28;20051;-70
2022/06/04 00:18:33;;;;;;;10.93;4.78;;;11.30;99.90;;;;;;5091835;28;20031;-70
2022/06/04 00:20:59;;;;;;;11.23;4.93;;;11.40;99.90;;;;;;5074771;28;20126;-70
2022/06/04 00:23:26;;;;;;;11.50;4.78;;;11.30;99.90;;;;;;5085311;28;20046;-70
2022/06/04 00:25:55;;;;;;;12.65;4.97;;;11.30;99.90;;;;;;5091926;28;20044;-70
2022/06/04 00:28:22;;;;;;;12.93;5.05;;;11.30;99.90;;;;;;5072443;28;20039;-70
2022/06/04 00:30:49;;;;;;;11.63;5.10;;;11.30;99.90;;;;;;5069858;28;20035;-70
2022/06/04 00:33:16;;;;;;;9.85;5.22;;;11.30;99.90;;;;;;5072484;28;20036;-70
2022/06/04 00:35:42;;;;;;;8.82;5.22;;;11.30;99.90;;;;;;5072221;28;20131;-70
2022/06/04 00:38:09;;;;;;;7.90;4.50;;;11.30;99.90;;;;;;5093166;28;20043;-70
2022/06/04 00:40:37;;;;;;;8.88;5.15;;;11.20;99.90;;;;;;5075312;28;20064;-70
2022/06/04 00:43:03;;;;;;;11.02;5.22;;;11.20;99.90;;;;;;5109906;27;20044;-70
2022/06/04 00:45:35;;;;;;;12.13;5.20;;;11.30;99.90;;;;;;5095380;28;20047;-70
2022/06/04 00:48:08;;;;;;;10.55;5.72;;;11.20;99.90;;;;;;5078072;28;20044;-70
2022/06/04 00:50:38;;;;;;;10.75;5.18;;;11.20;99.90;;;;;;5111655;27;20036;-70
2022/06/04 00:53:08;;;;;;;13.25;5.30;;;11.20;99.90;;;;;;5094815;28;20032;-70
2022/06/04 00:55:52;;;;;;;13.90;6.35;;;11.20;99.90;;;;;;5058257;28;20065;-70
2022/06/04 00:58:18;;;;;;;9.32;5.72;;;11.20;99.90;;;;;;5083632;28;20505;-70
2022/06/04 01:00:54;;;;;;;12.63;6.00;;;11.20;99.90;;;;;;5075096;28;20040;-70
2022/06/04 01:03:32;;;;;;;9.93;5.20;;;11.10;99.90;;;;;;5094150;28;20398;-70
2022/06/04 01:06:40;;;;;;;12.73;5.57;;;11.10;99.90;;;;;;5090969;28;20073;-70
2022/06/04 01:09:11;;;;;;;9.63;5.72;;;11.10;99.90;;;;;;5095085;28;20097;-70
2022/06/04 01:12:10;;;;;;;12.98;6.18;;;11.10;99.90;;;;;;5107186;27;20122;-70
2022/06/04 01:14:55;;;;;;;12.00;6.10;;;11.10;99.90;;;;;;5073549;28;20032;-70
2022/06/04 01:17:48;;;;;;;13.27;6.30;;;11.10;99.90;;;;;;5070166;28;20043;-70
2022/06/04 01:20:36;;;;;;;13.18;5.88;;;11.00;99.90;;;;;;5078015;28;20653;-70
2022/06/04 01:23:20;;;;;;;16.23;6.30;;;11.00;99.90;;;;;;5095444;28;20036;-70
2022/06/04 01:26:04;;;;;;;10.63;6.45;;;11.00;99.90;;;;;;5072460;28;21918;-70
2022/06/04 01:28:31;;;;;;;12.02;6.10;;;11.00;99.90;;;;;;5102484;28;20145;-70
2022/06/04 01:31:03;;;;;;;13.20;6.47;;;11.00;99.90;;;;;;5097180;28;20425;-70
2022/06/04 01:33:42;;;;;;;13.15;5.85;;;11.00;99.90;;;;;;5089597;28;20048;-70
2022/06/04 01:36:17;;;;;;;11.68;5.97;;;11.00;99.90;;;;;;5106636;27;20043;-70
2022/06/04 01:39:04;;;;;;;14.93;6.63;;;10.90;99.90;;;;;;5092556;28;20036;-70
2022/06/04 01:41:36;;;;;;;17.20;6.68;;;10.90;99.90;;;;;;5076137;28;20466;-70
2022/06/04 01:44:12;;;;;;;17.90;6.93;;;10.80;99.90;;;;;;5086222;28;20040;-70
2022/06/04 01:46:47;;;;;;;15.57;7.72;;;10.80;99.90;;;;;;5102092;28;20101;-70
2022/06/04 01:49:25;;;;;;;12.00;8.57;;;10.80;99.90;;;;;;5076414;28;20044;-70
2022/06/04 01:51:55;;;;;;;16.08;7.63;;;10.80;99.90;;;;;;5077501;28;20085;-70
2022/06/04 01:54:33;;;;;;;11.82;8.23;;;10.80;99.90;;;;;;5104042;28;20901;-70
2022/06/04 01:57:10;;;;;;;14.10;8.35;;;10.80;99.90;;;;;;5092833;28;20055;-70
2022/06/04 01:59:41;;;;;;;16.65;8.30;;;10.80;99.90;;;;;;5091333;28;20036;-70
2022/06/04 02:02:18;;;;;;;10.95;7.78;;;10.70;99.90;;;;;;5074847;28;20039;-70
2022/06/04 02:04:51;;;;;;;13.70;7.15;;;10.70;99.90;;;;;;5071838;28;20074;-70
2022/06/04 02:07:31;;;;;;;13.75;8.38;;;10.70;99.90;;;;;;5074286;28;20581;-70
2022/06/04 02:10:19;;;;;;;14.07;8.60;;;10.70;99.90;;;;;;5090946;28;20067;-70
2022/06/04 02:12:48;;;;;;;15.05;8.48;;;10.70;99.90;;;;;;5087698;28;20504;-70
2022/06/04 02:15:19;;;;;;;16.40;7.63;;;10.70;99.90;;;;;;5077111;28;20128;-70
2022/06/04 02:17:49;;;;;;;12.75;8.27;;;10.70;99.90;;;;;;5076103;28;20456;-70
2022/06/04 02:20:15;;;;;;;19.60;8.68;;;10.60;99.90;;;;;;5076223;28;20124;-70
2022/06/04 02:22:42;;;;;;;15.18;8.02;;;10.60;99.90;;;;;;5091374;28;20258;-70
2022/06/04 02:25:10;;;;;;;15.25;8.95;;;10.60;99.90;;;;;;5075753;28;20040;-70
2022/06/04 02:27:37;;;;;;;18.77;9.05;;;10.60;99.90;;;;;;5074366;28;20048;-70
2022/06/04 02:30:04;;;;;;;19.10;9.52;;;10.60;99.90;;;;;;5094536;28;20047;-70
2022/06/04 02:32:33;;;;;;;18.17;9.65;;;10.60;99.90;;;;;;5080692;28;20083;-70
2022/06/04 02:35:07;;;;;;;15.68;9.75;;;10.50;99.90;;;;;;5093167;28;20124;-70
2022/06/04 02:37:47;;;;;;;16.63;9.77;;;10.50;99.90;;;;;;5074321;28;20096;-70
2022/06/04 02:40:20;;;;;;;19.55;9.05;;;10.50;99.90;;;;;;5093512;28;20075;-70
2022/06/04 02:42:49;;;;;;;18.50;9.88;;;10.40;99.90;;;;;;5095535;28;20163;-70
2022/06/04 02:45:36;;;;;;;20.63;10.00;;;10.50;99.90;;;;;;5084089;28;20048;-70
2022/06/04 02:48:18;;;;;;;19.13;10.38;;;10.40;99.90;;;;;;5081916;28;20043;-70
2022/06/04 02:50:59;;;;;;;17.23;9.05;;;10.40;99.90;;;;;;5073160;28;20067;-70
2022/06/04 02:53:29;;;;;;;15.27;9.32;;;10.30;99.90;;;;;;5104298;27;20115;-70
2022/06/04 02:56:10;;;;;;;17.02;9.45;;;10.60;99.90;;;;;;5089091;28;20079;-70
2022/06/04 02:58:39;;;;;;;22.95;9.65;;;10.30;99.90;;;;;;5077399;28;20046;-70
2022/06/04 03:01:08;;;;;;;15.82;9.85;;;10.30;99.90;;;;;;5077788;28;20513;-70
2022/06/04 03:03:34;;;;;;;19.67;9.70;;;10.30;99.90;;;;;;5093670;28;20044;-70
2022/06/04 03:06:03;;;;;;;16.83;9.68;;;10.30;99.90;;;;;;5093993;28;20046;-70
2022/06/04 03:08:32;;;;;;;13.40;9.82;;;10.30;99.90;;;;;;5077450;28;20059;-70
2022/06/04 03:10:57;;;;;;;15.57;10.02;;;10.30;99.90;;;;;;5065661;28;20035;-70
2022/06/04 03:13:24;;;;;;;16.65;9.35;;;10.20;99.90;;;;;;5074858;28;20544;-70
2022/06/04 03:15:50;;;;;;;27.20;11.02;;;10.20;99.90;;;;;;5079142;28;20510;-70
2022/06/04 03:18:16;;;;;;;19.95;9.48;;;10.20;99.90;;;;;;5080568;28;20057;-70
2022/06/04 03:20:42;;;;;;;12.38;8.93;;;10.20;99.90;;;;;;5077159;28;20051;-70
2022/06/04 03:23:08;;;;;;;19.73;10.45;;;10.20;99.90;;;;;;5091879;28;20044;-70
2022/06/04 03:25:36;;;;;;;16.33;9.85;;;10.20;99.90;;;;;;5091150;28;20036;-70
2022/06/04 03:28:03;;;;;;;20.65;9.52;;;10.20;99.90;;;;;;5074584;28;20119;-70
2022/06/04 03:30:29;;;;;;;15.55;9.15;;;10.20;99.90;;;;;;5091769;28;20047;-70
2022/06/04 03:32:55;;;;;;;15.77;8.45;;;10.20;99.90;;;;;;5075607;28;22162;-70
2022/06/04 03:35:22;;;;;;;14.70;8.95;;;10.30;99.90;;;;;;5090044;28;20039;-70
2022/06/04 03:37:48;;;;;;;15.82;9.38;;;10.30;99.90;;;;;;5080293;28;20044;-70
2022/06/04 03:40:15;;;;;;;14.32;8.18;;;10.30;99.90;;;;;;5086761;28;20047;-70
2022/06/04 03:42:41;;;;;;;20.92;8.52;;;10.30;99.90;;;;;;5088798;28;20032;-70
2022/06/04 03:45:08;;;;;;;19.02;8.52;;;10.40;99.90;;;;;;5076174;28;20118;-70
2022/06/04 03:47:37;;;;;;;12.23;8.30;;;10.40;99.90;;;;;;5074504;28;20097;-70
2022/06/04 03:50:07;;;;;;;13.77;6.82;;;10.40;99.90;;;;;;5096890;28;20027;-70
2022/06/04 03:52:33;;;;;;;12.05;7.00;;;10.40;99.90;;;;;;5072146;28;20050;-70
2022/06/04 03:54:58;;;;;;;16.95;7.75;;;10.40;99.90;;;;;;5091312;28;20515;-70
2022/06/04 03:57:38;;;;;;;13.15;6.90;;;10.70;99.90;;;;;;5094474;28;20107;-70
2022/06/04 04:00:06;;;;;;;10.38;6.78;;;10.50;99.90;;;;;;5061062;28;20059;-70
2022/06/04 04:02:33;;;;;;;10.50;6.57;;;10.60;99.90;;;;;;5074382;28;20055;-70
2022/06/04 04:04:58;;;;;;;11.00;6.63;;;10.70;99.90;;;;;;5090802;28;20085;-70
2022/06/04 04:07:24;;;;;;;16.80;6.53;;;10.70;99.90;;;;;;5075753;28;20107;-70
2022/06/04 04:09:50;;;;;;;11.07;5.40;;;10.90;99.90;;;;;;5071619;28;20067;-70
2022/06/04 04:12:16;;;;;;;14.02;5.93;;;11.00;99.90;;;;;;5096176;28;20042;-70
2022/06/04 04:14:41;;;;;;;8.07;5.32;;;11.10;99.90;;;;;;5076001;28;20447;-70
2022/06/04 04:17:08;;;;;;;10.98;5.45;;;11.30;99.90;;;;;;5090808;28;20035;-70
2022/06/04 04:19:33;;;;;;;9.65;4.88;;;11.60;99.90;;;;;;5074532;28;21259;-70
2022/06/04 04:21:59;;;;;;;11.50;4.72;;;12.20;99.90;;;;;;5076449;28;20044;-70
2022/06/04 04:24:25;;;;;;;8.00;4.22;;;13.20;99.90;;;;;;5080378;28;20047;-70
2022/06/04 04:26:51;;;;;;;9.05;4.47;;;13.80;99.90;;;;;;5097075;28;20035;-70
2022/06/04 04:29:17;;;;;;;9.35;3.92;;;14.70;99.90;;;;;;5076589;28;20086;-70
2022/06/04 04:31:42;;;;;;;8.68;3.60;;;15.40;99.90;;;;;;5071641;28;20097;-70
2022/06/04 04:34:08;;;;;;;7.90;4.28;;;16.10;99.90;;;;;;5072465;28;20035;-70
2022/06/04 04:36:34;;;;;;;5.57;2.75;;;16.70;99.90;;;;;;5070774;28;20440;-70
2022/06/04 04:39:00;;;;;;;4.72;2.55;;;17.20;99.90;;;;;;5072669;28;20039;-70
2022/06/04 04:41:26;;;;;;;9.88;2.92;;;17.50;99.90;;;;;;5096955;28;20077;-70
2022/06/04 04:43:52;;;;;;;6.28;2.25;;;17.90;99.90;;;;;;5078250;28;20051;-70
2022/06/04 04:46:18;;;;;;;11.13;3.47;;;18.20;99.90;;;;;;5108449;27;20131;-70
2022/06/04 04:48:45;;;;;;;5.97;2.53;;;18.60;99.90;;;;;;5075775;28;20097;-70
2022/06/04 04:51:18;;;;;;;4.60;2.30;;;19.10;99.90;;;;;;5094179;28;20765;-70
2022/06/04 04:53:44;;;;;;;5.00;2.72;;;19.60;99.90;;;;;;5088875;28;20103;-70
2022/06/04 04:56:13;;;;;;;4.80;2.00;;;19.70;99.90;;;;;;5078126;28;20569;-70
2022/06/04 04:58:39;;;;;;;5.93;2.35;;;20.00;99.90;;;;;;5069783;28;20059;-70
2022/06/04 05:01:04;;;;;;;4.82;2.20;;;20.10;99.90;;;;;;5082414;28;20028;-70
2022/06/04 05:03:30;;;;;;;6.55;1.90;;;20.20;99.90;;;;;;5095770;28;20478;-70
2022/06/04 05:06:00;;;;;;;5.10;2.00;;;19.90;99.90;;;;;;5097161;27;20077;-70
2022/06/04 05:08:26;;;;;;;4.57;1.90;;;20.00;99.90;;;;;;5065274;28;20044;-70
2022/06/04 05:10:51;;;;;;;6.85;2.13;;;19.90;99.90;;;;;;5061236;28;20117;-69
2022/06/04 05:13:17;;;;;;;7.72;2.08;;;19.50;99.90;;;;;;5081980;28;20047;-69
2022/06/04 05:15:43;;;;;;;3.45;1.60;;;19.20;99.90;;;;;;5063825;28;20040;-70
2022/06/04 05:18:09;;;;;;;4.90;2.13;;;19.50;99.90;;;;;;5083108;28;20059;-70
2022/06/04 05:20:35;;;;;;;3.90;2.00;;;20.00;99.90;;;;;;5064962;28;20654;-70
2022/06/04 05:23:01;;;;;;;3.05;1.92;;;20.40;99.90;;;;;;5092208;28;20036;-70
2022/06/04 05:25:26;;;;;;;6.25;2.28;;;20.90;99.90;;;;;;5085380;28;20040;-70
2022/06/04 05:27:52;;;;;;;5.68;2.33;;;20.70;99.90;;;;;;5065377;28;20036;-70
2022/06/04 05:30:18;;;;;;;5.57;1.88;;;20.00;99.90;;;;;;5063335;28;20072;-70
2022/06/04 05:32:43;;;;;;;4.90;2.65;;;19.10;99.90;;;;;;5072366;28;20039;-70
2022/06/04 05:35:09;;;;;;;6.82;1.90;;;18.20;99.90;;;;;;5092664;28;20122;-70
2022/06/04 05:37:36;;;;;;;5.40;2.53;;;17.70;99.90;;;;;;5092877;28;20117;-70
2022/06/04 05:40:05;;;;;;;3.97;2.38;;;17.20;99.90;;;;;;5082185;28;20489;-69
2022/06/04 05:42:30;;;;;;;3.50;2.08;;;16.80;99.90;;;;;;5062706;28;20040;-70
2022/06/04 05:44:56;;;;;;;4.10;2.22;;;16.50;99.90;;;;;;5064457;28;20047;-70
2022/06/04 05:47:22;;;;;;;4.97;1.85;;;16.20;99.90;;;;;;5079445;28;20043;-70
2022/06/04 05:49:47;;;;;;;5.85;2.30;;;16.10;99.90;;;;;;5067487;28;20405;-70
2022/06/04 05:52:13;;;;;;;4.07;2.58;;;16.00;99.90;;;;;;5071400;28;20044;-70
2022/06/04 05:54:39;;;;;;;4.47;1.85;;;16.10;99.90;;;;;;5064247;28;20039;-69
2022/06/04 05:57:05;;;;;;;4.40;1.92;;;16.10;99.90;;;;;;5080397;28;20042;-69
2022/06/04 05:59:30;;;;;;;4.82;2.08;;;16.20;99.90;;;;;;5081759;28;20174;-69
2022/06/04 06:01:56;;;;;;;8.02;3.50;;;16.20;99.90;;;;;;5063556;28;20062;-70
2022/06/04 06:04:25;;;;;;;5.97;2.70;;;16.10;99.90;;;;;;5062294;28;20506;-69
2022/06/04 06:06:52;;;;;;;3.83;2.42;;;16.10;99.90;;;;;;5063999;28;20434;-70
2022/06/04 06:09:22;;;;;;;5.72;2.28;;;16.00;99.90;;;;;;5081959;28;20032;-70
2022/06/04 06:11:48;;;;;;;4.32;2.10;;;15.90;99.90;;;;;;5082951;28;20031;-70
2022/06/04 06:14:15;;;;;;;4.43;2.15;;;15.70;99.90;;;;;;5060263;28;20942;-70
2022/06/04 06:16:43;;;;;;;5.93;3.08;;;15.60;99.90;;;;;;5075662;28;20489;-70
2022/06/04 06:19:11;;;;;;;5.38;2.55;;;15.60;99.90;;;;;;5069995;28;20040;-70
2022/06/04 06:21:37;;;;;;;4.13;2.50;;;15.40;99.90;;;;;;5041863;28;20058;-70
2022/06/04 06:24:04;;;;;;;6.18;2.78;;;15.50;99.90;;;;;;5063912;28;20131;-69
2022/06/04 06:26:33;;;;;;;3.50;2.50;;;15.60;99.90;;;;;;5065721;28;20047;-69
2022/06/04 06:29:01;;;;;;;5.20;2.90;;;15.70;99.90;;;;;;5080211;28;20051;-70
2022/06/04 06:31:28;;;;;;;6.65;2.67;;;15.90;99.90;;;;;;5080181;28;20036;-70
2022/06/04 06:33:55;;;;;;;3.45;2.17;;;15.90;99.90;;;;;;5081431;28;20039;-70
2022/06/04 06:36:21;;;;;;;3.03;2.55;;;15.90;99.90;;;;;;5085169;28;20054;-70
2022/06/04 06:38:48;;;;;;;5.28;2.30;;;16.10;99.90;;;;;;5064465;28;20044;-70
2022/06/04 06:41:16;;;;;;;6.43;2.58;;;16.20;99.90;;;;;;5076834;28;20063;-70
2022/06/04 06:43:46;;;;;;;3.42;2.03;;;16.40;99.90;;;;;;5076836;28;20048;-70
2022/06/04 06:46:19;;;;;;;3.70;1.92;;;16.60;99.90;;;;;;5095445;28;20113;-70
2022/06/04 06:48:48;;;;;;;3.13;1.67;;;16.70;99.90;;;;;;5076348;28;20060;-70
2022/06/04 06:51:18;;;;;;;3.58;2.08;;;16.90;99.90;;;;;;5103452;27;20047;-70
2022/06/04 06:53:43;;;;;;;4.38;2.70;;;17.00;99.90;;;;;;5079922;28;20047;-70
2022/06/04 06:56:16;;;;;;;4.45;2.28;;;17.00;99.90;;;;;;5090785;28;20390;-70
2022/06/04 06:58:42;;;;;;;3.83;2.50;;;17.10;99.90;;;;;;5106308;27;20044;-70
2022/06/04 07:01:09;;;;;;;2.63;2.08;;;17.10;99.90;;;;;;5092926;28;20054;-70
2022/06/04 07:03:35;;;;;;;4.65;2.25;;;17.10;99.90;;;;;;5096713;28;20031;-70
2022/06/04 07:06:02;;;;;;;5.38;2.50;;;17.10;99.90;;;;;;5098560;28;20135;-70
2022/06/04 07:08:28;;;;;;;4.60;2.92;;;17.20;99.90;;;;;;5078321;28;20040;-70
2022/06/04 07:10:53;;;;;;;6.68;3.15;;;17.30;99.90;;;;;;5075260;28;20067;-70
2022/06/04 07:13:19;;;;;;;5.40;2.63;;;17.30;99.90;;;;;;5099083;28;20059;-70
2022/06/04 07:15:45;;;;;;;4.35;2.67;;;17.40;99.90;;;;;;5088979;28;20402;-70
2022/06/04 07:18:15;;;;;;;3.17;2.05;;;17.20;99.90;;;;;;5083784;28;20359;-69
2022/06/04 07:20:42;;;;;;;4.57;2.38;;;17.00;99.90;;;;;;5097577;28;20078;-70
2022/06/04 07:23:09;;;;;;;5.53;2.50;;;16.90;99.90;;;;;;5077126;28;20040;-70
2022/06/04 07:25:35;;;;;;;5.03;2.75;;;16.70;99.90;;;;;;5095383;28;20044;-70
2022/06/04 07:28:01;;;;;;;5.00;2.40;;;16.60;99.90;;;;;;5078922;28;20035;-70
2022/06/04 07:30:27;;;;;;;5.10;2.58;;;16.50;99.90;;;;;;5075598;28;20035;-70
2022/06/04 07:32:53;;;;;;;4.10;2.40;;;16.30;99.90;;;;;;5063406;28;20028;-70
2022/06/04 07:35:19;;;;;;;3.70;2.80;;;16.30;99.90;;;;;;5076332;28;20131;-70
2022/06/04 07:37:45;;;;;;;4.75;2.63;;;16.30;99.90;;;;;;5075791;28;20039;-70
2022/06/04 07:40:12;;;;;;;5.25;2.17;;;16.60;99.90;;;;;;5077929;28;20035;-69
2022/06/04 07:42:38;;;;;;;4.97;2.47;;;17.10;99.90;;;;;;5098648;28;20389;-69
2022/06/04 07:45:04;;;;;;;5.78;2.72;;;17.30;99.90;;;;;;5075874;28;20048;-70
2022/06/04 07:47:31;;;;;;;4.20;2.47;;;17.50;99.90;;;;;;5076711;28;20036;-70
2022/06/04 07:49:57;;;;;;;4.97;2.78;;;17.70;99.90;;;;;;5072988;28;20119;-70
2022/06/04 07:52:23;;;;;;;3.70;2.08;;;17.70;99.90;;;;;;5081475;28;20480;-69
2022/06/04 07:54:49;;;;;;;5.85;2.67;;;17.90;99.90;;;;;;5078155;28;20043;-70
2022/06/04 07:57:15;;;;;;;3.08;2.13;;;18.10;99.90;;;;;;5077575;28;20089;-70
2022/06/04 07:59:42;;;;;;;4.30;2.42;;;18.30;99.90;;;;;;5103738;27;20040;-70
2022/06/04 08:02:09;;;;;;;3.22;2.22;;;18.30;99.90;;;;;;5092337;28;20054;-70
2022/06/04 08:04:35;;;;;;;3.33;2.70;;;18.40;99.90;;;;;;5081169;28;20592;-70
2022/06/04 08:07:02;;;;;;;3.20;2.58;;;18.50;99.90;;;;;;5097319;28;20162;-70
2022/06/04 08:09:28;;;;;;;3.38;2.53;;;18.60;99.90;;;;;;5077008;28;20064;-70
2022/06/04 08:11:53;;;;;;;4.20;2.65;;;18.50;99.90;;;;;;5097351;28;20063;-70
2022/06/04 08:14:22;;;;;;;2.95;2.63;;;18.30;99.90;;;;;;5071216;28;20032;-70
2022/06/04 08:16:51;;;;;;;3.47;2.80;;;18.00;99.90;;;;;;5105467;27;20497;-70
2022/06/04 08:19:17;;;;;;;5.20;2.83;;;17.90;99.90;;;;;;5090605;28;20125;-70
2022/06/04 08:21:43;;;;;;;4.38;2.20;;;17.90;99.90;;;;;;5086247;28;20478;-70
2022/06/04 08:24:11;;;;;;;5.60;2.90;;;17.80;99.90;;;;;;5074780;28;20104;-70
2022/06/04 08:26:37;;;;;;;2.92;2.20;;;17.70;99.90;;;;;;5094986;28;20052;-70
2022/06/04 08:29:03;;;;;;;4.85;2.33;;;17.60;99.90;;;;;;5094126;28;20053;-69
2022/06/04 08:31:29;;;;;;;4.63;2.67;;;17.60;99.90;;;;;;5103376;27;20119;-69
2022/06/04 08:33:56;;;;;;;6.10;2.67;;;17.70;99.90;;;;;;5077147;28;20051;-69
2022/06/04 08:36:22;;;;;;;2.83;2.20;;;17.80;99.90;;;;;;5074880;28;20113;-69
2022/06/04 08:38:48;;;;;;;5.40;2.92;;;17.90;99.90;;;;;;5072814;28;20684;-69
2022/06/04 08:41:34;;;;;;;3.45;2.80;;;17.80;99.90;;;;;;5092997;28;20119;-69
2022/06/04 08:44:27;;;;;;;5.22;2.50;;;17.80;99.90;;;;;;5096952;28;20047;-69
2022/06/04 08:47:01;;;;;;;4.88;2.35;;;17.80;99.90;;;;;;5066948;28;20125;-70
2022/06/04 08:49:48;;;;;;;4.55;2.63;;;17.70;99.90;;;;;;5090406;28;20048;-69
2022/06/04 08:52:21;;;;;;;4.05;2.90;;;17.60;99.90;;;;;;5078476;28;20055;-69
2022/06/04 08:57:57;;;;;;;4.28;2.97;;;17.40;99.90;;;;;;5073513;28;20055;-70
2022/06/04 09:00:53;;;;;;;6.40;2.90;;;17.50;99.90;;;;;;5067907;28;20059;-69
2022/06/04 09:03:35;;;;;;;6.28;2.80;;;17.40;99.90;;;;;;5100172;28;20032;-70
2022/06/04 09:06:29;;;;;;;6.72;3.67;;;17.30;99.90;;;;;;5073179;28;20052;-70
2022/06/04 09:09:25;;;;;;;3.95;3.45;;;17.30;99.90;;;;;;5102544;27;20910;-70
2022/06/04 09:12:03;;;;;;;3.40;3.10;;;17.20;99.90;;;;;;5103563;28;20053;-70
2022/06/04 09:14:44;;;;;;;9.10;3.38;;;17.30;99.90;;;;;;5112702;27;20294;-70
2022/06/04 09:17:12;;;;;;;5.93;2.22;;;17.40;99.90;;;;;;5107102;27;20028;-70
2022/06/04 09:19:40;;;;;;;4.03;3.17;;;17.60;99.90;;;;;;5062952;28;20083;-70
2022/06/04 09:22:20;;;;;;;3.85;3.42;;;17.70;99.90;;;;;;5063989;28;20089;-70
2022/06/04 09:24:46;;;;;;;3.35;2.85;;;17.70;99.90;;;;;;5088192;28;20039;-70
2022/06/04 09:27:23;;;;;;;4.13;3.30;;;17.80;99.90;;;;;;5067149;28;20043;-70
2022/06/04 09:30:17;;;;;;;6.55;3.60;;;17.80;99.90;;;;;;5106378;27;20039;-70
2022/06/04 09:32:56;;;;;;;5.95;2.72;;;17.90;99.90;;;;;;5105976;27;20086;-70
2022/06/04 09:35:26;;;;;;;6.50;3.63;;;18.00;99.90;;;;;;5074133;28;20075;-70
2022/06/04 09:37:52;;;;;;;5.05;3.17;;;18.20;99.90;;;;;;5094428;28;20056;-70
2022/06/04 09:40:22;;;;;;;4.65;3.13;;;18.20;99.90;;;;;;5102233;27;20043;-70
2022/06/04 09:42:48;;;;;;;3.92;3.25;;;18.30;99.90;;;;;;5090203;28;20405;-70
2022/06/04 09:45:26;;;;;;;5.25;3.40;;;18.30;99.90;;;;;;5071122;28;20040;-70
2022/06/04 09:47:55;;;;;;;5.05;3.08;;;18.20;99.90;;;;;;5085891;28;20032;-70
2022/06/04 09:50:37;;;;;;;3.72;3.13;;;18.10;99.90;;;;;;5072058;28;20111;-70
2022/06/04 09:53:22;;;;;;;6.30;3.42;;;18.20;99.90;;;;;;5075714;28;20071;-70
2022/06/04 09:55:56;;;;;;;4.93;2.90;;;18.30;99.90;;;;;;5077126;28;20047;-70
2022/06/04 09:58:29;;;;;;;4.32;2.55;;;18.20;99.90;;;;;;5069279;28;20040;-70
2022/06/04 10:00:55;;;;;;;3.65;2.60;;;18.40;99.90;;;;;;5066826;28;20055;-68
2022/06/04 10:03:20;;;;;;;5.45;2.72;;;18.40;99.90;;;;;;5092886;28;20578;-68
2022/06/04 10:05:55;;;;;;;13.25;3.00;;;18.80;99.90;;;;;;5093100;28;20120;-68
2022/06/04 10:08:23;;;;;;;3.13;2.50;;;19.00;99.90;;;;;;5102919;28;20044;-68
2022/06/04 10:10:49;;;;;;;3.30;2.35;;;19.30;99.90;;;;;;5075092;28;20047;-68
2022/06/04 10:16:26;;;;;;;6.72;2.78;;;19.70;99.90;;;;;;5089996;28;20132;-68
2022/06/04 10:18:56;;;;;;;5.28;2.65;;;19.80;99.90;;;;;;5092929;28;20036;-68
2022/06/04 10:21:26;;;;;;;5.60;2.78;;;19.70;99.90;;;;;;5107153;28;20198;-68
2022/06/04 10:23:54;;;;;;;16.90;3.08;;;19.80;99.90;;;;;;5063941;28;20113;-68
2022/06/04 10:26:51;;;;;;;4.97;2.17;;;19.90;99.90;;;;;;5072225;28;20052;-68
2022/06/04 10:29:23;;;;;;;7.07;2.53;;;20.10;99.90;;;;;;5075580;28;20040;-69
2022/06/04 10:32:01;;;;;;;4.38;1.95;;;20.00;99.90;;;;;;5092008;28;20060;-68
2022/06/04 10:34:48;;;;;;;3.13;2.20;;;19.90;99.90;;;;;;5096725;28;20040;-68
2022/06/04 10:37:54;;;;;;;3.58;2.20;;;19.70;99.90;;;;;;5084130;28;20059;-69
2022/06/04 10:40:48;;;;;;;4.65;1.88;;;19.60;99.90;;;;;;5070896;28;20433;-68
2022/06/04 10:43:32;;;;;;;4.45;1.92;;;19.60;99.90;;;;;;5091211;28;20072;-68
2022/06/04 10:46:26;;;;;;;2.95;2.10;;;19.50;99.90;;;;;;5077548;28;20048;-68
2022/06/04 10:49:17;;;;;;;7.55;2.10;;;19.40;99.90;;;;;;5075190;28;20042;-68
2022/06/04 10:52:15;;;;;;;3.47;2.10;;;19.20;99.90;;;;;;5075995;28;20040;-68
2022/06/04 10:54:49;;;;;;;6.35;1.67;;;19.20;99.90;;;;;;5070804;28;20043;-67
2022/06/04 10:57:44;;;;;;;4.25;1.80;;;19.20;99.90;;;;;;5077196;28;20437;-68
2022/06/04 11:00:24;;;;;;;2.47;1.75;;;19.40;99.90;;;;;;5074098;28;20554;-68
2022/06/04 11:03:10;;;;;;;4.97;1.30;;;19.40;99.90;;;;;;5075002;28;20055;-68
2022/06/04 11:05:44;;;;;;;3.53;1.60;;;19.30;99.90;;;;;;5109500;27;20042;-68
2022/06/04 11:08:31;;;;;;;8.02;2.15;;;19.30;99.90;;;;;;5095286;28;20857;-65
2022/06/04 11:11:04;;;;;;;29.17;3.38;;;19.20;99.90;;;;;;5079025;28;20048;-68
2022/06/04 11:13:41;;;;;;;4.18;1.38;;;19.20;99.90;;;;;;5073633;28;20049;-68
2022/06/04 11:16:17;;;;;;;6.60;1.65;;;19.30;99.90;;;;;;5073524;28;20558;-68
2022/06/04 11:18:45;;;;;;;6.53;2.10;;;19.30;99.90;;;;;;5096518;28;20046;-68
2022/06/04 11:21:30;;;;;;;6.60;2.05;;;19.40;99.90;;;;;;5088405;28;20032;-68
2022/06/04 11:24:14;;;;;;;5.18;1.58;;;19.50;99.90;;;;;;5094998;28;20185;-68
2022/06/04 11:27:07;;;;;;;7.72;2.10;;;19.80;99.90;;;;;;5094284;28;20039;-68
2022/06/04 11:29:36;;;;;;;4.32;1.60;;;19.90;99.90;;;;;;5077454;28;20044;-68
2022/06/04 11:32:08;;;;;;;1.95;1.52;;;20.10;99.90;;;;;;5083309;28;20043;-68
2022/06/04 11:34:42;;;;;;;5.07;1.58;;;20.30;99.90;;;;;;5074831;28;21079;-68
2022/06/04 11:37:26;;;;;;;2.78;1.63;;;20.40;99.90;;;;;;5073767;28;20085;-68
2022/06/04 11:40:01;;;;;;;7.93;2.00;;;20.50;99.90;;;;;;5078362;28;20084;-68
2022/06/04 11:42:43;;;;;;;2.37;1.40;;;20.40;99.90;;;;;;5096119;28;20074;-68
2022/06/04 11:45:34;;;;;;;3.05;1.30;;;20.20;99.90;;;;;;5092654;28;20516;-68
2022/06/04 11:48:26;;;;;;;6.38;1.77;;;20.00;99.90;;;;;;5086801;28;20378;-68
2022/06/04 11:51:01;;;;;;;4.28;2.20;;;19.90;99.90;;;;;;5080024;28;20130;-68
2022/06/04 11:53:53;;;;;;;2.67;1.87;;;19.80;99.90;;;;;;5099792;28;20036;-68
2022/06/04 11:56:37;;;;;;;5.05;1.48;;;19.80;99.90;;;;;;5095492;28;20286;-68
2022/06/04 11:59:19;;;;;;;4.38;1.55;;;19.80;99.90;;;;;;5077389;28;20046;-68
2022/06/04 12:01:55;;;;;;;4.53;2.03;;;19.70;99.90;;;;;;5094868;28;20047;-68
2022/06/04 12:04:49;;;;;;;3.95;1.80;;;19.70;99.90;;;;;;5098770;28;20052;-68
2022/06/04 12:07:30;;;;;;;4.60;2.33;;;19.70;99.90;;;;;;5063068;28;20050;-68
2022/06/04 12:10:05;;;;;;;3.25;2.42;;;19.80;99.90;;;;;;5075510;28;20051;-68
2022/06/04 12:12:45;;;;;;;5.57;1.85;;;19.80;99.90;;;;;;5075673;28;20040;-68
2022/06/04 12:15:25;;;;;;;2.60;1.50;;;19.90;99.90;;;;;;5095363;28;20436;-68
2022/06/04 12:18:00;;;;;;;3.05;1.83;;;19.90;99.90;;;;;;5089832;28;20088;-68
2022/06/04 12:26:22;;;;;;;;;;;20.20;99.90;;;;;;5080169;28;20135;-68
2022/06/04 12:28:49;;;;;;;2.92;1.52;;;20.20;99.90;;;;;;5107793;27;20446;-67
2022/06/04 12:31:36;;;;;;;3.67;1.70;;;20.10;99.90;;;;;;5076688;28;20067;-67
2022/06/04 12:34:26;;;;;;;3.83;2.00;;;20.20;99.90;;;;;;5078731;28;20040;-66
2022/06/04 12:36:54;;;;;;;4.03;1.75;;;20.20;99.90;;;;;;5090243;28;20036;-67
2022/06/04 12:39:30;;;;;;;3.53;1.88;;;20.10;99.90;;;;;;5093801;28;20490;-66
2022/06/04 12:41:59;;;;;;;4.00;1.73;;;20.10;99.90;;;;;;5113443;27;20051;-68
2022/06/04 12:44:35;;;;;;;3.70;1.90;;;20.30;99.90;;;;;;5095190;28;20032;-67
2022/06/04 12:47:35;;;;;;;4.88;2.00;;;20.40;99.90;;;;;;5071986;28;20097;-67
2022/06/04 12:50:15;;;;;;;5.40;2.20;;;20.50;99.90;;;;;;5026764;28;20102;-67
2022/06/04 12:52:56;;;;;;;4.10;2.65;;;20.50;99.90;;;;;;5095083;28;20028;-67
2022/06/04 12:55:30;;;;;;;5.65;2.55;;;20.50;99.90;;;;;;5083267;28;20533;-67
2022/06/04 12:58:01;;;;;;;2.10;1.70;;;20.40;99.90;;;;;;5075687;28;20044;-68
2022/06/04 13:00:37;;;;;;;4.72;2.10;;;20.40;99.90;;;;;;5080656;28;20132;-68
2022/06/04 13:03:09;;;;;;;39.75;3.65;;;20.30;99.90;;;;;;5075653;28;20047;-68
2022/06/04 13:05:37;;;;;;;2.72;1.67;;;20.20;99.90;;;;;;5076169;28;20043;-69
2022/06/04 13:08:18;;;;;;;9.30;2.17;;;20.10;99.90;;;;;;5092883;28;20080;-69
2022/06/04 13:10:58;;;;;;;2.53;1.90;;;20.00;99.90;;;;;;5075435;28;20039;-68
2022/06/04 13:13:45;;;;;;;6.15;2.22;;;19.90;99.90;;;;;;5091425;28;20177;-68
2022/06/04 13:16:16;;;;;;;6.70;2.97;;;19.90;99.90;;;;;;5077022;28;20047;-69
2022/06/04 13:18:43;;;;;;;4.65;2.47;;;19.90;99.90;;;;;;5094286;28;20048;-69
2022/06/04 13:21:18;;;;;;;3.38;2.50;;;20.00;99.90;;;;;;5068188;28;20040;-68
2022/06/04 13:23:50;;;;;;;3.67;2.38;;;20.00;99.90;;;;;;5097336;28;20056;-67
2022/06/04 13:26:37;;;;;;;12.68;2.28;;;20.00;99.90;;;;;;5096439;28;20080;-65